createdAt,value
2016-07-10T00:00:03.541Z,21
2016-07-10T00:00:13.541Z,21
2016-07-10T00:00:23.547Z,21
2016-07-10T00:00:33.548Z,21
2016-07-10T00:00:43.550Z,20.9
2016-07-10T00:00:53.551Z,21
2016-07-10T00:01:02.923Z,21
2016-07-10T00:01:13.559Z,21
2016-07-10T00:01:23.562Z,21
2016-07-10T00:01:33.564Z,20.9
2016-07-10T00:01:43.567Z,20.9
2016-07-10T00:01:52.935Z,21
2016-07-10T00:02:03.571Z,20.9
2016-07-10T00:02:12.941Z,20.8
2016-07-10T00:02:23.578Z,20.9
2016-07-10T00:02:32.946Z,20.9
2016-07-10T00:02:43.583Z,20.9
2016-07-10T00:02:53.587Z,20.8
2016-07-10T00:03:03.588Z,20.9
2016-07-10T00:03:13.591Z,20.8
2016-07-10T00:03:23.593Z,20.9
2016-07-10T00:03:33.600Z,20.9
2016-07-10T00:03:43.600Z,20.9
2016-07-10T00:03:53.602Z,20.9
2016-07-10T00:04:03.606Z,20.9
2016-07-10T00:04:13.608Z,20.9
2016-07-10T00:04:23.612Z,20.9
2016-07-10T00:04:33.613Z,20.9
2016-07-10T00:04:43.615Z,20.9
2016-07-10T00:04:53.618Z,20.9
2016-07-10T00:05:03.621Z,20.9
2016-07-10T00:05:13.621Z,20.8
2016-07-10T00:05:23.627Z,20.9
2016-07-10T00:05:33.631Z,20.8
2016-07-10T00:05:43.630Z,20.9
2016-07-10T00:05:53.639Z,20.9
2016-07-10T00:06:03.637Z,20.9
2016-07-10T00:06:13.643Z,20.9
2016-07-10T00:06:23.643Z,20.9
2016-07-10T00:06:33.645Z,20.9
2016-07-10T00:06:43.648Z,20.9
2016-07-10T00:06:53.652Z,20.8
2016-07-10T00:07:03.654Z,20.9
2016-07-10T00:07:13.657Z,21
2016-07-10T00:07:23.660Z,20.9
2016-07-10T00:07:33.032Z,20.9
2016-07-10T00:07:43.665Z,20.8
2016-07-10T00:07:53.671Z,20.8
2016-07-10T00:08:03.672Z,20.9
2016-07-10T00:08:13.040Z,20.9
2016-07-10T00:08:23.043Z,20.9
2016-07-10T00:08:33.679Z,20.9
2016-07-10T00:08:43.680Z,20.9
2016-07-10T00:08:53.684Z,20.8
2016-07-10T00:09:03.692Z,20.8
2016-07-10T00:09:13.688Z,20.9
2016-07-10T00:09:23.699Z,20.8
2016-07-10T00:09:33.695Z,20.8
2016-07-10T00:09:43.696Z,20.9
2016-07-10T00:09:53.702Z,20.9
2016-07-10T00:10:03.704Z,20.8
2016-07-10T00:10:13.707Z,20.9
2016-07-10T00:10:23.709Z,20.8
2016-07-10T00:10:33.710Z,20.8
2016-07-10T00:10:43.724Z,20.8
2016-07-10T00:10:53.717Z,20.8
2016-07-10T00:11:03.722Z,20.8
2016-07-10T00:11:13.722Z,20.8
2016-07-10T00:11:23.723Z,20.8
2016-07-10T00:11:33.726Z,20.8
2016-07-10T00:11:43.730Z,20.8
2016-07-10T00:11:53.732Z,20.8
2016-07-10T00:12:03.735Z,20.9
2016-07-10T00:12:13.739Z,20.8
2016-07-10T00:12:23.741Z,20.8
2016-07-10T00:12:33.744Z,20.8
2016-07-10T00:12:43.747Z,20.8
2016-07-10T00:12:53.749Z,20.8
2016-07-10T00:13:03.758Z,20.8
2016-07-10T00:13:13.754Z,20.8
2016-07-10T00:13:23.757Z,20.8
2016-07-10T00:13:33.764Z,20.8
2016-07-10T00:13:43.762Z,20.8
2016-07-10T00:13:53.765Z,20.8
2016-07-10T00:14:03.766Z,20.8
2016-07-10T00:14:13.772Z,20.8
2016-07-10T00:14:23.772Z,20.8
2016-07-10T00:14:33.781Z,20.8
2016-07-10T00:14:43.782Z,20.8
2016-07-10T00:14:53.780Z,20.8
2016-07-10T00:15:03.783Z,20.8
2016-07-10T00:15:13.788Z,20.8
2016-07-10T00:15:23.793Z,20.8
2016-07-10T00:15:33.792Z,20.8
2016-07-10T00:15:43.795Z,20.8
2016-07-10T00:15:53.796Z,20.6
2016-07-10T00:16:03.799Z,20.8
2016-07-10T00:16:13.802Z,20.8
2016-07-10T00:16:23.816Z,20.8
2016-07-10T00:16:33.808Z,20.7
2016-07-10T00:16:43.809Z,20.7
2016-07-10T00:16:53.818Z,20.7
2016-07-10T00:17:03.816Z,20.7
2016-07-10T00:17:13.819Z,20.8
2016-07-10T00:17:23.822Z,20.7
2016-07-10T00:17:33.827Z,20.7
2016-07-10T00:17:43.832Z,20.8
2016-07-10T00:17:53.831Z,20.7
2016-07-10T00:18:03.832Z,20.8
2016-07-10T00:18:13.836Z,20.7
2016-07-10T00:18:23.835Z,20.7
2016-07-10T00:18:33.843Z,20.7
2016-07-10T00:18:43.844Z,20.7
2016-07-10T00:18:53.846Z,20.8
2016-07-10T00:19:03.848Z,20.8
2016-07-10T00:19:13.853Z,20.8
2016-07-10T00:19:23.863Z,20.8
2016-07-10T00:19:33.857Z,20.8
2016-07-10T00:19:43.868Z,20.7
2016-07-10T00:19:53.874Z,20.7
2016-07-10T00:20:03.864Z,20.7
2016-07-10T00:20:13.869Z,20.8
2016-07-10T00:20:23.870Z,20.7
2016-07-10T00:20:33.872Z,20.8
2016-07-10T00:20:43.875Z,20.8
2016-07-10T00:20:53.244Z,20.8
2016-07-10T00:21:03.245Z,20.7
2016-07-10T00:21:13.893Z,20.7
2016-07-10T00:21:23.887Z,20.8
2016-07-10T00:21:33.889Z,20.7
2016-07-10T00:21:43.893Z,20.7
2016-07-10T00:21:53.896Z,20.7
2016-07-10T00:22:03.898Z,20.7
2016-07-10T00:22:13.900Z,20.8
2016-07-10T00:22:23.907Z,20.7
2016-07-10T00:22:33.905Z,20.8
2016-07-10T00:22:43.909Z,20.7
2016-07-10T00:22:53.913Z,20.8
2016-07-10T00:23:03.915Z,20.7
2016-07-10T00:23:13.915Z,20.7
2016-07-10T00:23:23.922Z,20.7
2016-07-10T00:23:33.922Z,20.8
2016-07-10T00:23:43.922Z,20.8
2016-07-10T00:23:53.927Z,20.7
2016-07-10T00:24:03.929Z,20.7
2016-07-10T00:24:13.933Z,20.7
2016-07-10T00:24:23.935Z,20.8
2016-07-10T00:24:33.937Z,20.7
2016-07-10T00:24:43.941Z,20.7
2016-07-10T00:24:53.943Z,20.7
2016-07-10T00:25:03.946Z,20.7
2016-07-10T00:25:13.949Z,20.7
2016-07-10T00:25:23.957Z,20.7
2016-07-10T00:25:33.958Z,20.7
2016-07-10T00:25:43.324Z,20.7
2016-07-10T00:25:53.962Z,20.7
2016-07-10T00:26:03.974Z,20.7
2016-07-10T00:26:13.969Z,20.7
2016-07-10T00:26:23.972Z,20.7
2016-07-10T00:26:33.971Z,20.7
2016-07-10T00:26:43.975Z,20.7
2016-07-10T00:26:53.976Z,20.7
2016-07-10T00:27:03.980Z,20.7
2016-07-10T00:27:13.347Z,20.8
2016-07-10T00:27:23.984Z,20.7
2016-07-10T00:27:33.989Z,20.7
2016-07-10T00:27:43.988Z,20.7
2016-07-10T00:27:53.992Z,20.8
2016-07-10T00:28:03.362Z,20.7
2016-07-10T00:28:13.998Z,20.7
2016-07-10T00:28:24.006Z,20.7
2016-07-10T00:28:34.003Z,20.7
2016-07-10T00:28:44.015Z,20.7
2016-07-10T00:28:54.010Z,20.7
2016-07-10T00:29:04.012Z,20.7
2016-07-10T00:29:14.016Z,20.7
2016-07-10T00:29:24.017Z,20.8
2016-07-10T00:29:34.023Z,20.8
2016-07-10T00:29:44.023Z,20.7
2016-07-10T00:29:53.396Z,20.7
2016-07-10T00:30:04.029Z,20.8
2016-07-10T00:30:13.397Z,20.8
2016-07-10T00:30:23.403Z,20.7
2016-07-10T00:30:34.036Z,20.7
2016-07-10T00:30:44.042Z,20.7
2016-07-10T00:30:54.041Z,20.8
2016-07-10T00:31:04.048Z,20.7
2016-07-10T00:31:14.047Z,20.7
2016-07-10T00:31:24.050Z,20.7
2016-07-10T00:31:34.054Z,20.7
2016-07-10T00:31:44.055Z,20.7
2016-07-10T00:31:54.063Z,20.7
2016-07-10T00:32:04.063Z,20.7
2016-07-10T00:32:14.067Z,20.7
2016-07-10T00:32:24.066Z,20.8
2016-07-10T00:32:34.068Z,20.7
2016-07-10T00:32:44.073Z,20.7
2016-07-10T00:32:54.073Z,20.7
2016-07-10T00:33:04.076Z,20.7
2016-07-10T00:33:14.080Z,20.7
2016-07-10T00:33:24.083Z,20.8
2016-07-10T00:33:34.085Z,20.7
2016-07-10T00:33:44.090Z,20.7
2016-07-10T00:33:53.453Z,20.7
2016-07-10T00:34:04.093Z,20.7
2016-07-10T00:34:13.463Z,20.7
2016-07-10T00:34:24.099Z,20.7
2016-07-10T00:34:34.102Z,20.8
2016-07-10T00:34:44.103Z,20.7
2016-07-10T00:34:54.107Z,20.7
2016-07-10T00:35:04.114Z,20.7
2016-07-10T00:35:14.111Z,20.7
2016-07-10T00:35:24.115Z,20.7
2016-07-10T00:35:34.116Z,20.7
2016-07-10T00:35:44.121Z,20.8
2016-07-10T00:35:54.123Z,20.7
2016-07-10T00:36:04.127Z,20.7
2016-07-10T00:36:14.129Z,20.7
2016-07-10T00:36:24.132Z,20.7
2016-07-10T00:36:34.133Z,20.7
2016-07-10T00:36:44.135Z,20.7
2016-07-10T00:36:54.138Z,20.7
2016-07-10T00:37:04.142Z,20.7
2016-07-10T00:37:14.146Z,20.7
2016-07-10T00:37:24.150Z,20.7
2016-07-10T00:37:34.151Z,20.7
2016-07-10T00:37:44.151Z,20.7
2016-07-10T00:37:54.154Z,20.7
2016-07-10T00:38:04.157Z,20.7
2016-07-10T00:38:14.165Z,20.7
2016-07-10T00:38:24.163Z,20.6
2016-07-10T00:38:34.170Z,20.6
2016-07-10T00:38:44.168Z,20.6
2016-07-10T00:38:54.168Z,20.6
2016-07-10T00:39:04.185Z,20.6
2016-07-10T00:39:14.177Z,20.7
2016-07-10T00:39:24.178Z,20.6
2016-07-10T00:39:34.182Z,20.6
2016-07-10T00:39:44.190Z,20.7
2016-07-10T00:39:54.188Z,20.7
2016-07-10T00:40:04.190Z,20.6
2016-07-10T00:40:14.192Z,20.6
2016-07-10T00:40:23.561Z,20.7
2016-07-10T00:40:34.196Z,20.7
2016-07-10T00:40:44.200Z,20.6
2016-07-10T00:40:54.203Z,20.7
2016-07-10T00:41:04.203Z,20.7
2016-07-10T00:41:13.574Z,20.7
2016-07-10T00:41:24.214Z,20.7
2016-07-10T00:41:34.215Z,20.7
2016-07-10T00:41:44.219Z,20.6
2016-07-10T00:41:54.217Z,20.6
2016-07-10T00:42:04.222Z,20.6
2016-07-10T00:42:14.224Z,20.6
2016-07-10T00:42:24.227Z,20.6
2016-07-10T00:42:34.234Z,20.7
2016-07-10T00:42:44.233Z,20.6
2016-07-10T00:42:54.234Z,20.7
2016-07-10T00:43:04.238Z,20.6
2016-07-10T00:43:14.240Z,20.7
2016-07-10T00:43:24.243Z,20.6
2016-07-10T00:43:34.247Z,20.6
2016-07-10T00:43:44.248Z,20.7
2016-07-10T00:43:54.254Z,20.6
2016-07-10T00:44:04.256Z,20.7
2016-07-10T00:44:14.257Z,20.6
2016-07-10T00:44:23.636Z,20.6
2016-07-10T00:44:34.264Z,20.7
2016-07-10T00:44:44.264Z,20.6
2016-07-10T00:44:54.268Z,20.6
2016-07-10T00:45:04.269Z,20.6
2016-07-10T00:45:14.274Z,20.7
2016-07-10T00:45:24.277Z,20.7
2016-07-10T00:45:34.281Z,20.6
2016-07-10T00:45:44.284Z,20.6
2016-07-10T00:45:54.285Z,20.7
2016-07-10T00:46:03.662Z,20.6
2016-07-10T00:46:14.290Z,20.7
2016-07-10T00:46:24.292Z,20.7
2016-07-10T00:46:34.294Z,20.6
2016-07-10T00:46:44.299Z,20.6
2016-07-10T00:46:54.305Z,20.6
2016-07-10T00:47:04.304Z,20.6
2016-07-10T00:47:14.310Z,20.5
2016-07-10T00:47:24.308Z,20.6
2016-07-10T00:47:34.313Z,20.6
2016-07-10T00:47:44.314Z,20.6
2016-07-10T00:47:53.679Z,20.6
2016-07-10T00:48:04.321Z,20.6
2016-07-10T00:48:14.322Z,20.6
2016-07-10T00:48:24.331Z,20.6
2016-07-10T00:48:34.326Z,20.5
2016-07-10T00:48:44.330Z,20.6
2016-07-10T00:48:54.334Z,20.6
2016-07-10T00:49:04.337Z,20.6
2016-07-10T00:49:14.339Z,20.6
2016-07-10T00:49:24.340Z,20.6
2016-07-10T00:49:33.709Z,20.6
2016-07-10T00:49:44.347Z,20.6
2016-07-10T00:49:54.348Z,20.6
2016-07-10T00:50:04.354Z,20.6
2016-07-10T00:50:14.354Z,20.6
2016-07-10T00:50:24.357Z,20.6
2016-07-10T00:50:34.358Z,20.6
2016-07-10T00:50:44.362Z,20.6
2016-07-10T00:50:54.366Z,20.6
2016-07-10T00:51:04.367Z,20.6
2016-07-10T00:51:14.375Z,20.6
2016-07-10T00:51:24.374Z,20.6
2016-07-10T00:51:34.382Z,20.6
2016-07-10T00:51:44.379Z,20.6
2016-07-10T00:51:53.746Z,20.6
2016-07-10T00:52:04.386Z,20.6
2016-07-10T00:52:14.389Z,20.6
2016-07-10T00:52:24.392Z,20.6
2016-07-10T00:52:34.392Z,20.6
2016-07-10T00:52:44.398Z,20.6
2016-07-10T00:52:54.397Z,20.6
2016-07-10T00:53:04.398Z,20.6
2016-07-10T00:53:14.402Z,20.5
2016-07-10T00:53:24.406Z,20.5
2016-07-10T00:53:34.409Z,20.5
2016-07-10T00:53:44.412Z,20.5
2016-07-10T00:53:54.412Z,20.6
2016-07-10T00:54:03.785Z,20.6
2016-07-10T00:54:14.419Z,20.5
2016-07-10T00:54:24.421Z,20.6
2016-07-10T00:54:34.424Z,20.5
2016-07-10T00:54:44.426Z,20.5
2016-07-10T00:54:54.429Z,20.5
2016-07-10T00:55:04.432Z,20.6
2016-07-10T00:55:14.436Z,20.5
2016-07-10T00:55:24.444Z,20.6
2016-07-10T00:55:33.806Z,20.5
2016-07-10T00:55:44.444Z,20.5
2016-07-10T00:55:54.447Z,20.5
2016-07-10T00:56:04.449Z,20.5
2016-07-10T00:56:14.453Z,20.5
2016-07-10T00:56:24.454Z,20.5
2016-07-10T00:56:34.456Z,20.5
2016-07-10T00:56:44.459Z,20.5
2016-07-10T00:56:54.466Z,20.5
2016-07-10T00:57:04.462Z,20.5
2016-07-10T00:57:14.467Z,20.5
2016-07-10T00:57:24.471Z,20.5
2016-07-10T00:57:34.473Z,20.4
2016-07-10T00:57:44.470Z,20.5
2016-07-10T00:57:54.477Z,20.5
2016-07-10T00:58:04.480Z,20.5
2016-07-10T00:58:14.484Z,20.4
2016-07-10T00:58:24.486Z,20.5
2016-07-10T00:58:34.489Z,20.5
2016-07-10T00:58:44.502Z,20.4
2016-07-10T00:58:54.499Z,20.5
2016-07-10T00:59:03.862Z,20.5
2016-07-10T00:59:14.500Z,20.5
2016-07-10T00:59:24.503Z,20.4
2016-07-10T00:59:34.504Z,20.4
2016-07-10T00:59:44.507Z,20.4
2016-07-10T00:59:54.511Z,20.4
2016-07-10T01:00:04.518Z,20.5
2016-07-10T01:00:14.518Z,20.4
2016-07-10T01:00:24.516Z,20.5
2016-07-10T01:00:34.521Z,20.5
2016-07-10T01:00:44.526Z,20.4
2016-07-10T01:00:54.526Z,20.5
2016-07-10T01:01:04.529Z,20.5
2016-07-10T01:01:14.530Z,20.4
2016-07-10T01:01:24.534Z,20.4
2016-07-10T01:01:34.536Z,20.4
2016-07-10T01:01:44.539Z,20.4
2016-07-10T01:01:54.547Z,20.5
2016-07-10T01:02:04.544Z,20.4
2016-07-10T01:02:14.557Z,20.4
2016-07-10T01:02:24.549Z,20.5
2016-07-10T01:02:34.552Z,20.5
2016-07-10T01:02:44.556Z,20.4
2016-07-10T01:02:54.557Z,20.4
2016-07-10T01:03:04.561Z,20.4
2016-07-10T01:03:14.565Z,20.4
2016-07-10T01:03:24.566Z,20.4
2016-07-10T01:03:34.569Z,20.4
2016-07-10T01:03:44.571Z,20.4
2016-07-10T01:03:54.574Z,20.5
2016-07-10T01:04:04.578Z,20.4
2016-07-10T01:04:14.581Z,20.4
2016-07-10T01:04:24.580Z,20.4
2016-07-10T01:04:34.584Z,20.3
2016-07-10T01:04:44.587Z,20.4
2016-07-10T01:04:54.592Z,20.4
2016-07-10T01:05:03.959Z,20.4
2016-07-10T01:05:14.596Z,20.4
2016-07-10T01:05:23.963Z,20.3
2016-07-10T01:05:34.602Z,20.4
2016-07-10T01:05:44.604Z,20.4
2016-07-10T01:05:54.606Z,20.4
2016-07-10T01:06:04.611Z,20.4
2016-07-10T01:06:14.612Z,20.4
2016-07-10T01:06:24.614Z,20.4
2016-07-10T01:06:34.620Z,20.3
2016-07-10T01:06:44.621Z,20.4
2016-07-10T01:06:54.622Z,20.4
2016-07-10T01:07:04.626Z,20.4
2016-07-10T01:07:14.626Z,20.4
2016-07-10T01:07:24.631Z,20.4
2016-07-10T01:07:34.641Z,20.4
2016-07-10T01:07:44.635Z,20.4
2016-07-10T01:07:54.639Z,20.3
2016-07-10T01:08:04.641Z,20.3
2016-07-10T01:08:14.647Z,20.3
2016-07-10T01:08:24.646Z,20.3
2016-07-10T01:08:34.650Z,20.4
2016-07-10T01:08:44.651Z,20.4
2016-07-10T01:08:54.656Z,20.4
2016-07-10T01:09:04.657Z,20.4
2016-07-10T01:09:14.658Z,20.4
2016-07-10T01:09:24.667Z,20.4
2016-07-10T01:09:34.664Z,20.3
2016-07-10T01:09:44.670Z,20.4
2016-07-10T01:09:54.667Z,20.4
2016-07-10T01:10:04.672Z,20.4
2016-07-10T01:10:14.677Z,20.3
2016-07-10T01:10:24.678Z,20.3
2016-07-10T01:10:34.680Z,20.4
2016-07-10T01:10:44.685Z,20.3
2016-07-10T01:10:54.686Z,20.4
2016-07-10T01:11:04.690Z,20.3
2016-07-10T01:11:14.690Z,20.3
2016-07-10T01:11:24.698Z,20.4
2016-07-10T01:11:34.698Z,20.3
2016-07-10T01:11:44.705Z,20.4
2016-07-10T01:11:54.703Z,20.4
2016-07-10T01:12:04.705Z,20.4
2016-07-10T01:12:14.712Z,20.4
2016-07-10T01:12:24.711Z,20.3
2016-07-10T01:12:34.717Z,20.4
2016-07-10T01:12:44.716Z,20.3
2016-07-10T01:12:54.721Z,20.3
2016-07-10T01:13:04.723Z,20.3
2016-07-10T01:13:14.724Z,20.3
2016-07-10T01:13:24.727Z,20.3
2016-07-10T01:13:34.730Z,20.3
2016-07-10T01:13:44.737Z,20.3
2016-07-10T01:13:54.733Z,20.3
2016-07-10T01:14:04.742Z,20.4
2016-07-10T01:14:14.739Z,20.4
2016-07-10T01:14:24.743Z,20.4
2016-07-10T01:14:34.744Z,20.3
2016-07-10T01:14:44.748Z,20.3
2016-07-10T01:14:54.751Z,20.4
2016-07-10T01:15:04.752Z,20.3
2016-07-10T01:15:14.755Z,20.3
2016-07-10T01:15:24.757Z,20.3
2016-07-10T01:15:34.761Z,20.3
2016-07-10T01:15:44.769Z,20.4
2016-07-10T01:15:54.765Z,20.4
2016-07-10T01:16:04.769Z,20.4
2016-07-10T01:16:14.773Z,20.4
2016-07-10T01:16:24.774Z,20.4
2016-07-10T01:16:34.776Z,20.4
2016-07-10T01:16:44.780Z,20.4
2016-07-10T01:16:54.786Z,20.3
2016-07-10T01:17:04.784Z,20.4
2016-07-10T01:17:14.791Z,20.4
2016-07-10T01:17:24.791Z,20.3
2016-07-10T01:17:34.792Z,20.4
2016-07-10T01:17:44.798Z,20.4
2016-07-10T01:17:54.797Z,20.3
2016-07-10T01:18:04.801Z,20.4
2016-07-10T01:18:14.804Z,20.4
2016-07-10T01:18:24.805Z,20.4
2016-07-10T01:18:34.809Z,20.4
2016-07-10T01:18:44.812Z,20.4
2016-07-10T01:18:54.814Z,20.4
2016-07-10T01:19:04.817Z,20.4
2016-07-10T01:19:14.821Z,20.4
2016-07-10T01:19:24.823Z,20.4
2016-07-10T01:19:34.826Z,20.5
2016-07-10T01:19:44.828Z,20.4
2016-07-10T01:19:54.831Z,20.5
2016-07-10T01:20:04.836Z,20.4
2016-07-10T01:20:14.834Z,20.5
2016-07-10T01:20:24.839Z,20.4
2016-07-10T01:20:34.841Z,20.5
2016-07-10T01:20:44.210Z,20.4
2016-07-10T01:20:54.845Z,20.5
2016-07-10T01:21:04.849Z,20.4
2016-07-10T01:21:14.850Z,20.4
2016-07-10T01:21:24.855Z,20.4
2016-07-10T01:21:34.856Z,20.5
2016-07-10T01:21:44.861Z,20.5
2016-07-10T01:21:54.862Z,20.4
2016-07-10T01:22:04.863Z,20.5
2016-07-10T01:22:14.867Z,20.4
2016-07-10T01:22:24.234Z,20.5
2016-07-10T01:22:34.874Z,20.4
2016-07-10T01:22:44.876Z,20.4
2016-07-10T01:22:54.879Z,20.4
2016-07-10T01:23:04.880Z,20.5
2016-07-10T01:23:14.882Z,20.4
2016-07-10T01:23:24.885Z,20.4
2016-07-10T01:23:34.889Z,20.5
2016-07-10T01:23:44.890Z,20.4
2016-07-10T01:23:54.894Z,20.5
2016-07-10T01:24:04.900Z,20.5
2016-07-10T01:24:14.899Z,20.5
2016-07-10T01:24:24.903Z,20.5
2016-07-10T01:24:34.904Z,20.5
2016-07-10T01:24:44.908Z,20.4
2016-07-10T01:24:54.911Z,20.4
2016-07-10T01:25:04.911Z,20.4
2016-07-10T01:25:14.911Z,20.4
2016-07-10T01:25:24.917Z,20.4
2016-07-10T01:25:34.923Z,20.5
2016-07-10T01:25:44.924Z,20.4
2016-07-10T01:25:54.926Z,20.4
2016-07-10T01:26:04.927Z,20.4
2016-07-10T01:26:14.930Z,20.4
2016-07-10T01:26:24.939Z,20.4
2016-07-10T01:26:34.938Z,20.4
2016-07-10T01:26:44.942Z,20.5
2016-07-10T01:26:54.943Z,20.4
2016-07-10T01:27:04.944Z,20.5
2016-07-10T01:27:14.949Z,20.5
2016-07-10T01:27:24.951Z,20.5
2016-07-10T01:27:34.953Z,20.5
2016-07-10T01:27:44.954Z,20.5
2016-07-10T01:27:54.323Z,20.5
2016-07-10T01:28:04.958Z,20.4
2016-07-10T01:28:14.962Z,20.4
2016-07-10T01:28:24.968Z,20.4
2016-07-10T01:28:34.967Z,20.4
2016-07-10T01:28:44.973Z,20.4
2016-07-10T01:28:54.974Z,20.4
2016-07-10T01:29:04.976Z,20.4
2016-07-10T01:29:14.978Z,20.4
2016-07-10T01:29:24.983Z,20.4
2016-07-10T01:29:34.986Z,20.4
2016-07-10T01:29:44.988Z,20.3
2016-07-10T01:29:54.988Z,20.4
2016-07-10T01:30:04.994Z,20.3
2016-07-10T01:30:14.994Z,20.3
2016-07-10T01:30:24.999Z,20.3
2016-07-10T01:30:35.004Z,20.3
2016-07-10T01:30:45.008Z,20.3
2016-07-10T01:30:55.006Z,20.3
2016-07-10T01:31:05.009Z,20.4
2016-07-10T01:31:15.011Z,20.4
2016-07-10T01:31:25.014Z,20.3
2016-07-10T01:31:35.021Z,20.3
2016-07-10T01:31:45.017Z,20.3
2016-07-10T01:31:55.022Z,20.3
2016-07-10T01:32:05.024Z,20.3
2016-07-10T01:32:15.027Z,20.3
2016-07-10T01:32:25.030Z,20.3
2016-07-10T01:32:35.032Z,20.3
2016-07-10T01:32:45.038Z,20.3
2016-07-10T01:32:55.037Z,20.3
2016-07-10T01:33:05.040Z,20.3
2016-07-10T01:33:15.046Z,20.3
2016-07-10T01:33:25.048Z,20.3
2016-07-10T01:33:35.049Z,20.3
2016-07-10T01:33:45.050Z,20.3
2016-07-10T01:33:55.058Z,20.3
2016-07-10T01:34:05.056Z,20.3
2016-07-10T01:34:15.061Z,20.3
2016-07-10T01:34:25.060Z,20.4
2016-07-10T01:34:35.063Z,20.4
2016-07-10T01:34:45.067Z,20.3
2016-07-10T01:34:55.074Z,20.3
2016-07-10T01:35:04.438Z,20.2
2016-07-10T01:35:15.074Z,20.3
2016-07-10T01:35:25.077Z,20.3
2016-07-10T01:35:35.090Z,20.3
2016-07-10T01:35:45.082Z,20.3
2016-07-10T01:35:55.088Z,20.3
2016-07-10T01:36:05.088Z,20.3
2016-07-10T01:36:15.090Z,20.3
2016-07-10T01:36:25.096Z,20.2
2016-07-10T01:36:35.095Z,20.3
2016-07-10T01:36:45.099Z,20.3
2016-07-10T01:36:55.100Z,20.2
2016-07-10T01:37:05.107Z,20.3
2016-07-10T01:37:15.109Z,20.3
2016-07-10T01:37:25.208Z,20.2
2016-07-10T01:37:35.112Z,20.3
2016-07-10T01:37:45.115Z,20.3
2016-07-10T01:37:54.484Z,20.2
2016-07-10T01:38:05.118Z,20.2
2016-07-10T01:38:14.487Z,20.2
2016-07-10T01:38:25.130Z,20.3
2016-07-10T01:38:35.126Z,20.3
2016-07-10T01:38:45.129Z,20.3
2016-07-10T01:38:55.132Z,20.2
2016-07-10T01:39:05.139Z,20.3
2016-07-10T01:39:15.139Z,20.2
2016-07-10T01:39:25.143Z,20.3
2016-07-10T01:39:35.143Z,20.3
2016-07-10T01:39:45.145Z,20.3
2016-07-10T01:39:55.149Z,20.2
2016-07-10T01:40:04.519Z,20.2
2016-07-10T01:40:15.154Z,20.2
2016-07-10T01:40:25.157Z,20.3
2016-07-10T01:40:35.159Z,20.3
2016-07-10T01:40:45.164Z,20.2
2016-07-10T01:40:55.171Z,20.2
2016-07-10T01:41:05.167Z,20.3
2016-07-10T01:41:15.172Z,20.2
2016-07-10T01:41:25.172Z,20.2
2016-07-10T01:41:35.176Z,20.2
2016-07-10T01:41:44.544Z,20.2
2016-07-10T01:41:55.180Z,20.2
2016-07-10T01:42:05.184Z,20.2
2016-07-10T01:42:15.189Z,20.2
2016-07-10T01:42:25.187Z,20.3
2016-07-10T01:42:35.189Z,20.2
2016-07-10T01:42:45.193Z,20.2
2016-07-10T01:42:55.202Z,20.2
2016-07-10T01:43:05.199Z,20.2
2016-07-10T01:43:15.202Z,20.2
2016-07-10T01:43:25.205Z,20.2
2016-07-10T01:43:35.206Z,20.2
2016-07-10T01:43:45.214Z,20.2
2016-07-10T01:43:55.212Z,20.2
2016-07-10T01:44:05.215Z,20.2
2016-07-10T01:44:15.219Z,20.2
2016-07-10T01:44:25.219Z,20.2
2016-07-10T01:44:35.219Z,20.2
2016-07-10T01:44:45.225Z,20.3
2016-07-10T01:44:55.229Z,20.2
2016-07-10T01:45:05.231Z,20.1
2016-07-10T01:45:15.234Z,20.2
2016-07-10T01:45:25.238Z,20.1
2016-07-10T01:45:35.238Z,20.2
2016-07-10T01:45:45.243Z,20.1
2016-07-10T01:45:55.248Z,20.2
2016-07-10T01:46:05.247Z,20.2
2016-07-10T01:46:15.250Z,20.2
2016-07-10T01:46:25.253Z,20.2
2016-07-10T01:46:35.256Z,20.2
2016-07-10T01:46:45.258Z,20.2
2016-07-10T01:46:55.263Z,20.2
2016-07-10T01:47:05.263Z,20.1
2016-07-10T01:47:15.265Z,20.2
2016-07-10T01:47:24.637Z,20.1
2016-07-10T01:47:35.269Z,20.1
2016-07-10T01:47:44.640Z,20.1
2016-07-10T01:47:55.277Z,20.1
2016-07-10T01:48:05.282Z,20.2
2016-07-10T01:48:15.282Z,20.2
2016-07-10T01:48:25.286Z,20.2
2016-07-10T01:48:35.289Z,20.2
2016-07-10T01:48:44.654Z,20.2
2016-07-10T01:48:55.293Z,20.1
2016-07-10T01:49:05.295Z,20.2
2016-07-10T01:49:15.296Z,20.1
2016-07-10T01:49:25.300Z,20.2
2016-07-10T01:49:35.301Z,20.2
2016-07-10T01:49:45.309Z,20.1
2016-07-10T01:49:55.323Z,20.2
2016-07-10T01:50:04.676Z,20.2
2016-07-10T01:50:15.313Z,20.2
2016-07-10T01:50:25.316Z,20.1
2016-07-10T01:50:35.320Z,20.2
2016-07-10T01:50:45.319Z,20.2
2016-07-10T01:50:55.326Z,20.1
2016-07-10T01:51:05.326Z,20.2
2016-07-10T01:51:15.331Z,20.1
2016-07-10T01:51:25.330Z,20.1
2016-07-10T01:51:35.334Z,20.1
2016-07-10T01:51:45.339Z,20.1
2016-07-10T01:51:55.338Z,20.1
2016-07-10T01:52:05.344Z,20.2
2016-07-10T01:52:15.347Z,20.2
2016-07-10T01:52:25.346Z,20.1
2016-07-10T01:52:35.348Z,20.2
2016-07-10T01:52:45.351Z,20.1
2016-07-10T01:52:55.359Z,20.1
2016-07-10T01:53:05.356Z,20.1
2016-07-10T01:53:15.364Z,20.1
2016-07-10T01:53:25.363Z,20.2
2016-07-10T01:53:35.364Z,20.1
2016-07-10T01:53:45.368Z,20.1
2016-07-10T01:53:55.369Z,20.1
2016-07-10T01:54:05.373Z,20.2
2016-07-10T01:54:15.376Z,20.1
2016-07-10T01:54:25.378Z,20.2
2016-07-10T01:54:35.383Z,20.2
2016-07-10T01:54:45.385Z,20.2
2016-07-10T01:54:55.387Z,20.2
2016-07-10T01:55:05.389Z,20.1
2016-07-10T01:55:15.392Z,20.1
2016-07-10T01:55:24.760Z,20
2016-07-10T01:55:35.397Z,20.1
2016-07-10T01:55:45.401Z,20.1
2016-07-10T01:55:55.402Z,20.1
2016-07-10T01:56:05.409Z,20
2016-07-10T01:56:15.408Z,20
2016-07-10T01:56:25.415Z,20.1
2016-07-10T01:56:34.791Z,20.1
2016-07-10T01:56:45.413Z,20.2
2016-07-10T01:56:55.418Z,20.1
2016-07-10T01:57:05.419Z,20.2
2016-07-10T01:57:15.424Z,20.1
2016-07-10T01:57:25.427Z,20.1
2016-07-10T01:57:35.427Z,20.2
2016-07-10T01:57:45.435Z,20.1
2016-07-10T01:57:55.433Z,20.2
2016-07-10T01:58:05.438Z,20.1
2016-07-10T01:58:15.439Z,20.1
2016-07-10T01:58:25.441Z,20.2
2016-07-10T01:58:35.444Z,20.1
2016-07-10T01:58:44.817Z,20.1
2016-07-10T01:58:55.450Z,20.1
2016-07-10T01:59:05.452Z,20.1
2016-07-10T01:59:15.455Z,20.2
2016-07-10T01:59:25.456Z,20.1
2016-07-10T01:59:35.460Z,20.1
2016-07-10T01:59:45.463Z,20.1
2016-07-10T01:59:55.466Z,20.1
2016-07-10T02:00:04.834Z,20.1
2016-07-10T02:00:15.471Z,20.1
2016-07-10T02:00:25.472Z,20
2016-07-10T02:00:35.476Z,20
2016-07-10T02:00:45.477Z,20.1
2016-07-10T02:00:55.481Z,20.1
2016-07-10T02:01:05.482Z,20.1
2016-07-10T02:01:15.490Z,20
2016-07-10T02:01:25.489Z,20.1
2016-07-10T02:01:35.494Z,20.1
2016-07-10T02:01:45.494Z,20
2016-07-10T02:01:54.866Z,20
2016-07-10T02:02:05.499Z,20
2016-07-10T02:02:15.502Z,20
2016-07-10T02:02:25.505Z,20
2016-07-10T02:02:35.507Z,20.1
2016-07-10T02:02:45.514Z,20
2016-07-10T02:02:55.513Z,20
2016-07-10T02:03:05.516Z,20
2016-07-10T02:03:15.520Z,20
2016-07-10T02:03:24.886Z,20
2016-07-10T02:03:35.529Z,20
2016-07-10T02:03:44.890Z,20
2016-07-10T02:03:55.530Z,20
2016-07-10T02:04:05.530Z,20
2016-07-10T02:04:15.535Z,20
2016-07-10T02:04:25.539Z,20
2016-07-10T02:04:35.538Z,20
2016-07-10T02:04:45.545Z,20.1
2016-07-10T02:04:55.543Z,20
2016-07-10T02:05:05.551Z,20
2016-07-10T02:05:15.550Z,20
2016-07-10T02:05:25.552Z,20
2016-07-10T02:05:35.552Z,20
2016-07-10T02:05:45.557Z,20
2016-07-10T02:05:55.561Z,20
2016-07-10T02:06:05.563Z,20
2016-07-10T02:06:15.566Z,20
2016-07-10T02:06:25.569Z,20
2016-07-10T02:06:35.571Z,20.1
2016-07-10T02:06:45.574Z,20.1
2016-07-10T02:06:55.575Z,19.9
2016-07-10T02:07:05.578Z,20
2016-07-10T02:07:15.583Z,20
2016-07-10T02:07:25.584Z,20
2016-07-10T02:07:35.589Z,19.9
2016-07-10T02:07:45.587Z,20.1
2016-07-10T02:07:54.956Z,20
2016-07-10T02:08:05.593Z,20
2016-07-10T02:08:14.964Z,19.9
2016-07-10T02:08:24.968Z,20.1
2016-07-10T02:08:35.603Z,20
2016-07-10T02:08:45.603Z,19.9
2016-07-10T02:08:55.611Z,20
2016-07-10T02:09:05.618Z,19.9
2016-07-10T02:09:15.612Z,19.9
2016-07-10T02:09:25.615Z,19.9
2016-07-10T02:09:35.616Z,19.9
2016-07-10T02:09:45.620Z,19.9
2016-07-10T02:09:55.623Z,19.9
2016-07-10T02:10:05.623Z,19.9
2016-07-10T02:10:15.629Z,19.9
2016-07-10T02:10:25.630Z,19.9
2016-07-10T02:10:35.633Z,20
2016-07-10T02:10:45.640Z,19.9
2016-07-10T02:10:55.638Z,19.9
2016-07-10T02:11:05.638Z,20
2016-07-10T02:11:15.643Z,19.9
2016-07-10T02:11:25.646Z,19.9
2016-07-10T02:11:35.649Z,19.9
2016-07-10T02:11:45.651Z,19.9
2016-07-10T02:11:55.651Z,20
2016-07-10T02:12:05.658Z,19.8
2016-07-10T02:12:15.024Z,19.9
2016-07-10T02:12:25.663Z,19.9
2016-07-10T02:12:35.662Z,19.9
2016-07-10T02:12:45.671Z,19.9
2016-07-10T02:12:55.670Z,19.9
2016-07-10T02:13:05.674Z,19.9
2016-07-10T02:13:15.674Z,19.9
2016-07-10T02:13:25.678Z,20
2016-07-10T02:13:35.677Z,19.9
2016-07-10T02:13:45.683Z,19.9